createdAt,value
2022-07-31T00:00:12.133Z,100.00
2022-07-31T00:02:38.664Z,100.00
2022-07-31T00:05:06.905Z,100.00
2022-07-31T00:07:33.542Z,100.00
2022-07-31T00:10:01.145Z,100.00
2022-07-31T00:12:27.765Z,100.00
2022-07-31T00:14:54.625Z,100.00
2022-07-31T00:17:21.429Z,100.00
2022-07-31T00:19:48.004Z,100.00
2022-07-31T00:22:14.692Z,100.00
2022-07-31T00:24:41.293Z,100.00
2022-07-31T00:27:08.059Z,100.00
2022-07-31T00:29:34.665Z,100.00
2022-07-31T00:32:01.245Z,100.00
2022-07-31T00:34:27.813Z,100.00
2022-07-31T00:36:54.529Z,100.00
2022-07-31T00:39:21.060Z,100.00
2022-07-31T00:41:47.772Z,100.00
2022-07-31T00:44:14.513Z,100.00
2022-07-31T00:46:42.151Z,100.00
2022-07-31T00:49:12.938Z,100.00
2022-07-31T00:51:40.373Z,100.00
2022-07-31T00:54:08.483Z,100.00
2022-07-31T00:56:35.640Z,100.00
2022-07-31T00:59:03.323Z,100.00
2022-07-31T01:01:30.867Z,100.00
2022-07-31T01:03:57.947Z,100.00
2022-07-31T01:06:24.552Z,100.00
2022-07-31T01:08:51.107Z,100.00
2022-07-31T01:11:41.882Z,100.00
2022-07-31T01:14:10.024Z,100.00
2022-07-31T01:16:41.028Z,100.00
2022-07-31T01:19:38.573Z,100.00
2022-07-31T01:22:43.768Z,100.00
2022-07-31T01:25:32.000Z,100.00
2022-07-31T01:28:07.136Z,100.00
2022-07-31T01:30:40.642Z,100.00
2022-07-31T01:33:12.390Z,100.00
2022-07-31T01:35:43.245Z,100.00
2022-07-31T01:38:20.444Z,100.00
2022-07-31T01:40:50.931Z,100.00
2022-07-31T01:43:29.483Z,100.00
2022-07-31T01:45:59.118Z,100.00
2022-07-31T01:48:26.919Z,100.00
2022-07-31T01:50:55.894Z,100.00
2022-07-31T01:53:25.192Z,100.00
2022-07-31T01:56:02.409Z,100.00
2022-07-31T01:58:35.935Z,100.00
2022-07-31T02:01:05.702Z,100.00
2022-07-31T02:03:44.355Z,100.00
2022-07-31T02:06:17.842Z,100.00
2022-07-31T02:08:47.345Z,100.00
2022-07-31T02:11:18.024Z,100.00
2022-07-31T02:13:46.501Z,100.00
2022-07-31T02:16:18.055Z,100.00
2022-07-31T02:18:47.388Z,100.00
2022-07-31T02:21:15.075Z,100.00
2022-07-31T02:23:42.008Z,100.00
2022-07-31T02:26:09.166Z,100.00
2022-07-31T02:28:38.351Z,100.00
2022-07-31T02:31:10.508Z,100.00
2022-07-31T02:33:38.225Z,100.00
2022-07-31T02:36:06.788Z,100.00
2022-07-31T02:38:35.232Z,100.00
2022-07-31T02:41:05.108Z,100.00
2022-07-31T02:43:34.930Z,100.00
2022-07-31T02:46:04.654Z,100.00
2022-07-31T02:48:32.378Z,100.00
2022-07-31T02:50:59.802Z,100.00
2022-07-31T02:53:27.194Z,100.00
2022-07-31T02:55:53.995Z,100.00
2022-07-31T02:58:20.583Z,100.00
2022-07-31T03:00:47.439Z,100.00
2022-07-31T03:03:14.058Z,100.00
2022-07-31T03:05:40.644Z,100.00
2022-07-31T03:08:07.229Z,100.00
2022-07-31T03:10:33.851Z,100.00
2022-07-31T03:13:02.151Z,100.00
2022-07-31T03:15:30.682Z,100.00
2022-07-31T03:17:58.447Z,100.00
2022-07-31T03:20:26.728Z,100.00
2022-07-31T03:22:53.330Z,100.00
2022-07-31T03:25:21.293Z,100.00
2022-07-31T03:27:52.694Z,100.00
2022-07-31T03:30:27.224Z,100.00
2022-07-31T03:32:55.259Z,100.00
2022-07-31T03:35:22.520Z,100.00
2022-07-31T03:37:49.621Z,100.00
2022-07-31T03:40:16.151Z,100.00
2022-07-31T03:42:43.736Z,100.00
2022-07-31T03:45:12.437Z,100.00
2022-07-31T03:47:39.273Z,100.00
2022-07-31T03:50:07.605Z,100.00
2022-07-31T03:52:35.453Z,100.00
2022-07-31T03:55:02.373Z,100.00
2022-07-31T03:57:34.356Z,100.00
2022-07-31T04:00:03.835Z,100.00
2022-07-31T04:02:31.888Z,100.00
2022-07-31T04:04:59.586Z,100.00
2022-07-31T04:07:26.518Z,100.00
2022-07-31T04:09:55.152Z,100.00
2022-07-31T04:12:22.084Z,100.00
2022-07-31T04:14:48.916Z,100.00
2022-07-31T04:17:15.522Z,100.00
2022-07-31T04:19:42.202Z,100.00
2022-07-31T04:22:09.322Z,100.00
2022-07-31T04:24:36.201Z,100.00
2022-07-31T04:27:08.099Z,100.00
2022-07-31T04:29:34.829Z,100.00
2022-07-31T04:32:01.893Z,100.00
2022-07-31T04:34:28.607Z,100.00
2022-07-31T04:36:55.315Z,100.00
2022-07-31T04:39:21.901Z,100.00
2022-07-31T04:41:48.424Z,100.00
2022-07-31T04:44:15.307Z,100.00
2022-07-31T04:46:43.895Z,100.00
2022-07-31T04:49:13.227Z,100.00
2022-07-31T04:51:40.059Z,100.00
2022-07-31T04:54:06.619Z,100.00
2022-07-31T04:56:33.385Z,100.00
2022-07-31T04:59:02.381Z,100.00
2022-07-31T05:01:29.069Z,100.00
2022-07-31T05:03:55.651Z,100.00
2022-07-31T05:06:22.450Z,100.00
2022-07-31T05:08:49.050Z,100.00
2022-07-31T05:11:24.777Z,100.00
2022-07-31T05:13:57.646Z,100.00
2022-07-31T05:16:25.815Z,100.00
2022-07-31T05:18:52.390Z,100.00
2022-07-31T05:21:19.499Z,100.00
2022-07-31T05:23:49.025Z,100.00
2022-07-31T05:26:17.847Z,100.00
2022-07-31T05:28:46.563Z,100.00
2022-07-31T05:31:13.553Z,100.00
2022-07-31T05:33:40.222Z,100.00
2022-07-31T05:36:07.217Z,100.00
2022-07-31T05:38:34.244Z,100.00
2022-07-31T05:41:00.846Z,100.00
2022-07-31T05:43:27.878Z,100.00
2022-07-31T05:45:54.759Z,100.00
2022-07-31T05:48:22.692Z,100.00
2022-07-31T05:50:50.860Z,100.00
2022-07-31T05:53:17.931Z,100.00
2022-07-31T05:55:45.954Z,100.00
2022-07-31T05:58:16.556Z,100.00
2022-07-31T06:00:45.269Z,100.00
2022-07-31T06:03:14.478Z,100.00
2022-07-31T06:05:41.379Z,100.00
2022-07-31T06:08:09.885Z,100.00
2022-07-31T06:10:39.982Z,100.00
2022-07-31T06:13:06.667Z,100.00
2022-07-31T06:15:36.480Z,100.00
2022-07-31T06:18:04.149Z,100.00
2022-07-31T06:20:30.871Z,100.00
2022-07-31T06:22:57.861Z,100.00
2022-07-31T06:25:24.613Z,100.00
2022-07-31T06:27:59.264Z,100.00
2022-07-31T06:30:27.980Z,100.00
2022-07-31T06:32:54.682Z,100.00
2022-07-31T06:35:21.348Z,100.00
2022-07-31T06:37:47.985Z,100.00
2022-07-31T06:40:14.622Z,100.00
2022-07-31T06:42:41.621Z,100.00
2022-07-31T06:45:08.895Z,100.00
2022-07-31T06:47:35.454Z,100.00
2022-07-31T06:50:02.266Z,100.00
2022-07-31T06:52:28.885Z,100.00
2022-07-31T06:54:55.522Z,100.00
2022-07-31T06:57:22.118Z,100.00
2022-07-31T06:59:48.748Z,100.00
2022-07-31T07:02:16.469Z,100.00
2022-07-31T07:04:57.376Z,100.00
2022-07-31T07:07:31.941Z,100.00
2022-07-31T07:09:59.441Z,100.00
2022-07-31T07:12:26.880Z,100.00
2022-07-31T07:14:54.394Z,100.00
2022-07-31T07:17:21.757Z,100.00
2022-07-31T07:19:54.678Z,100.00
2022-07-31T07:22:31.163Z,99.45
2022-07-31T07:24:59.335Z,99.29
2022-07-31T07:27:25.937Z,100.00
2022-07-31T07:29:52.483Z,99.65
2022-07-31T07:32:19.007Z,100.00
2022-07-31T07:34:45.555Z,100.00
2022-07-31T07:37:12.502Z,99.58
2022-07-31T07:39:39.065Z,99.64
2022-07-31T07:42:05.949Z,98.35
2022-07-31T07:44:32.924Z,99.89
2022-07-31T07:46:59.434Z,97.07
2022-07-31T07:49:26.196Z,98.59
2022-07-31T07:51:58.345Z,98.82
2022-07-31T07:54:26.964Z,97.49
2022-07-31T07:56:55.161Z,97.13
2022-07-31T07:59:21.990Z,97.76
2022-07-31T08:01:48.593Z,98.44
2022-07-31T08:04:15.148Z,97.53
2022-07-31T08:06:41.691Z,96.34
2022-07-31T08:09:09.428Z,94.43
2022-07-31T08:11:36.034Z,96.09
2022-07-31T08:14:02.553Z,95.41
2022-07-31T08:16:29.110Z,97.43
2022-07-31T08:18:55.648Z,97.57
2022-07-31T08:21:22.220Z,96.25
2022-07-31T08:23:48.940Z,97.91
2022-07-31T08:26:15.547Z,98.31
2022-07-31T08:28:50.336Z,96.34
2022-07-31T08:31:21.397Z,93.99
2022-07-31T08:33:47.935Z,91.67
2022-07-31T08:36:14.676Z,92.35
2022-07-31T08:38:41.291Z,92.77
2022-07-31T08:41:07.947Z,91.75
2022-07-31T08:44:01.751Z,91.15
2022-07-31T08:46:22.373Z,91.34
2022-07-31T08:48:53.487Z,90.38
2022-07-31T08:51:24.074Z,90.67
2022-07-31T08:53:51.693Z,89.91
2022-07-31T08:56:19.741Z,86.86
2022-07-31T08:58:47.028Z,86.98
2022-07-31T09:01:15.449Z,88.07
2022-07-31T09:03:42.329Z,87.53
2022-07-31T09:06:08.907Z,88.35
2022-07-31T09:08:38.739Z,85.91
2022-07-31T09:11:12.192Z,85.75
2022-07-31T09:13:39.020Z,84.35
2022-07-31T09:16:06.120Z,82.66
2022-07-31T09:18:33.994Z,83.29
2022-07-31T09:21:03.165Z,83.95
2022-07-31T09:23:32.111Z,83.41
2022-07-31T09:26:05.906Z,82.59
2022-07-31T09:28:36.552Z,79.24
2022-07-31T09:31:05.163Z,81.00
2022-07-31T09:33:32.740Z,78.11
2022-07-31T09:36:00.189Z,77.12
2022-07-31T09:38:37.876Z,77.67
2022-07-31T09:41:57.874Z,76.50
2022-07-31T09:44:09.539Z,76.95
2022-07-31T09:46:44.541Z,78.44
2022-07-31T09:49:11.682Z,75.51
2022-07-31T09:51:43.120Z,77.42
2022-07-31T09:54:30.014Z,73.72
2022-07-31T09:56:57.685Z,72.26
2022-07-31T09:59:26.601Z,73.95
2022-07-31T10:01:53.855Z,68.84
2022-07-31T10:04:22.737Z,73.38
2022-07-31T10:06:51.394Z,69.48
2022-07-31T10:09:23.058Z,67.96
2022-07-31T10:11:50.312Z,68.87
2022-07-31T10:14:22.480Z,69.07
2022-07-31T10:16:51.096Z,67.31
2022-07-31T10:19:19.838Z,68.14
2022-07-31T10:21:54.747Z,69.93
2022-07-31T10:24:27.963Z,70.11
2022-07-31T10:27:01.178Z,67.22
2022-07-31T10:29:32.771Z,64.89
2022-07-31T10:32:00.417Z,68.27
2022-07-31T10:34:27.786Z,64.34
2022-07-31T10:36:59.259Z,67.02
2022-07-31T10:39:35.789Z,64.86
2022-07-31T10:42:18.159Z,62.21
2022-07-31T10:44:51.094Z,59.56
2022-07-31T10:47:19.224Z,59.05
2022-07-31T10:49:48.819Z,59.79
2022-07-31T10:52:34.717Z,59.24
2022-07-31T10:55:02.104Z,59.82
2022-07-31T10:57:31.991Z,60.89
2022-07-31T11:00:12.225Z,59.08
2022-07-31T11:02:39.449Z,60.24
2022-07-31T11:05:28.189Z,59.86
2022-07-31T11:08:09.721Z,58.94
2022-07-31T11:10:36.921Z,57.53
2022-07-31T11:13:08.380Z,55.45
2022-07-31T11:15:37.593Z,55.29
2022-07-31T11:18:22.600Z,53.37
2022-07-31T11:21:06.193Z,54.21
2022-07-31T11:24:02.052Z,52.92
2022-07-31T11:26:33.158Z,53.08
2022-07-31T11:30:02.011Z,53.77
2022-07-31T11:31:55.858Z,52.27
2022-07-31T11:34:22.438Z,52.55
2022-07-31T11:36:51.507Z,51.45
2022-07-31T11:39:18.716Z,50.42
2022-07-31T11:41:50.337Z,51.22
2022-07-31T11:44:21.865Z,47.70
2022-07-31T11:46:52.472Z,47.13
2022-07-31T11:49:39.159Z,47.28
2022-07-31T11:52:30.636Z,49.07
2022-07-31T11:55:14.592Z,47.66
2022-07-31T11:57:52.156Z,47.45
2022-07-31T12:00:29.279Z,48.79
2022-07-31T12:02:58.447Z,46.98
2022-07-31T12:05:38.905Z,47.68
2022-07-31T12:08:07.786Z,49.08
2022-07-31T12:10:34.735Z,45.69
2022-07-31T12:13:02.777Z,45.87
2022-07-31T12:15:29.378Z,49.49
2022-07-31T12:18:05.106Z,46.48
2022-07-31T12:20:36.860Z,45.73
2022-07-31T12:23:06.540Z,47.15
2022-07-31T12:25:41.150Z,44.91
2022-07-31T12:28:08.667Z,43.46
2022-07-31T12:30:35.430Z,43.98
2022-07-31T12:33:09.679Z,44.48
2022-07-31T12:35:54.806Z,45.37
2022-07-31T12:38:45.406Z,44.62
2022-07-31T12:41:14.026Z,44.34
2022-07-31T12:43:52.009Z,43.92
2022-07-31T12:46:35.783Z,44.53
2022-07-31T12:49:04.949Z,44.83
2022-07-31T12:51:46.159Z,43.15
2022-07-31T12:54:15.448Z,43.20
2022-07-31T12:56:42.186Z,42.22
2022-07-31T12:59:09.933Z,42.21
2022-07-31T13:01:36.941Z,42.56
2022-07-31T13:04:07.898Z,42.81
2022-07-31T13:06:45.183Z,41.60
2022-07-31T13:09:11.713Z,42.01
2022-07-31T13:11:46.054Z,41.39
2022-07-31T13:14:20.391Z,42.04
2022-07-31T13:16:49.355Z,40.75
2022-07-31T13:19:16.087Z,41.98
2022-07-31T13:21:49.437Z,41.59
2022-07-31T13:24:20.924Z,41.81
2022-07-31T13:26:50.959Z,39.13
2022-07-31T13:29:18.071Z,40.72
2022-07-31T13:31:44.756Z,40.41
2022-07-31T13:34:11.919Z,41.38
2022-07-31T13:36:39.209Z,100.00
2022-07-31T13:39:09.559Z,39.20
2022-07-31T13:41:39.222Z,38.62
2022-07-31T13:44:06.612Z,38.32
2022-07-31T13:46:33.362Z,38.33
2022-07-31T13:49:02.175Z,39.38
2022-07-31T13:51:29.849Z,37.49
2022-07-31T13:53:56.630Z,37.77
2022-07-31T13:56:39.024Z,38.14
2022-07-31T13:59:11.520Z,39.14
2022-07-31T14:02:03.659Z,37.67
2022-07-31T14:04:25.877Z,38.03
2022-07-31T14:06:55.228Z,38.07
2022-07-31T14:09:21.776Z,38.73
2022-07-31T14:11:48.318Z,39.21
2022-07-31T14:14:15.209Z,39.07
2022-07-31T14:16:49.441Z,38.72
2022-07-31T14:19:15.989Z,38.40
2022-07-31T14:21:50.404Z,37.63
2022-07-31T14:24:24.469Z,37.41
2022-07-31T14:26:51.058Z,39.01
2022-07-31T14:29:17.670Z,37.02
2022-07-31T14:31:44.319Z,100.00
2022-07-31T14:34:10.882Z,100.00
2022-07-31T14:36:37.414Z,100.00
2022-07-31T14:39:03.999Z,34.83
2022-07-31T14:41:30.531Z,35.37
2022-07-31T14:43:57.054Z,35.09
2022-07-31T14:46:23.639Z,34.35
2022-07-31T14:48:50.261Z,34.79
2022-07-31T14:51:18.499Z,35.15
2022-07-31T14:53:46.465Z,35.16
2022-07-31T14:56:13.058Z,35.61
2022-07-31T14:58:58.243Z,35.05
2022-07-31T15:01:30.523Z,34.83
2022-07-31T15:03:57.765Z,34.42
2022-07-31T15:06:37.666Z,34.85
2022-07-31T15:09:10.974Z,34.67
2022-07-31T15:12:00.406Z,34.55
2022-07-31T15:14:24.001Z,35.02
2022-07-31T15:16:50.522Z,34.48
2022-07-31T15:19:17.266Z,35.14
2022-07-31T15:22:10.191Z,33.74
2022-07-31T15:24:33.695Z,33.83
2022-07-31T15:27:00.248Z,33.78
2022-07-31T15:30:04.209Z,33.46
2022-07-31T15:32:13.611Z,33.56
2022-07-31T15:34:40.130Z,33.55
2022-07-31T15:37:07.305Z,33.71
2022-07-31T15:39:34.194Z,33.81
2022-07-31T15:42:01.738Z,34.60
2022-07-31T15:44:28.297Z,34.94
2022-07-31T15:46:54.925Z,34.74
2022-07-31T15:49:21.605Z,35.30
2022-07-31T15:51:48.228Z,34.96
2022-07-31T15:54:15.503Z,35.53
2022-07-31T15:56:42.098Z,34.67
2022-07-31T15:59:08.762Z,35.17
2022-07-31T16:01:35.370Z,37.16
2022-07-31T16:04:03.019Z,36.21
2022-07-31T16:06:43.928Z,35.76
2022-07-31T16:09:16.325Z,36.63
2022-07-31T16:12:03.668Z,37.93
2022-07-31T16:14:29.527Z,36.61
2022-07-31T16:16:56.723Z,37.52
2022-07-31T16:19:25.120Z,36.72
2022-07-31T16:21:53.062Z,36.70
2022-07-31T16:24:22.011Z,36.61
2022-07-31T16:26:49.728Z,36.75
2022-07-31T16:29:17.814Z,37.09
2022-07-31T16:32:04.099Z,37.13
2022-07-31T16:34:30.676Z,36.90
2022-07-31T16:36:57.247Z,36.69
2022-07-31T16:39:23.919Z,37.46
2022-07-31T16:41:54.516Z,37.14
2022-07-31T16:44:21.764Z,37.32
2022-07-31T16:46:52.803Z,37.50
2022-07-31T16:49:35.712Z,37.61
2022-07-31T16:52:04.918Z,36.74
2022-07-31T16:54:31.551Z,37.28
2022-07-31T16:56:58.141Z,36.62
2022-07-31T16:59:24.711Z,36.39
2022-07-31T17:01:58.006Z,37.38
2022-07-31T17:04:27.227Z,37.21
2022-07-31T17:06:53.941Z,37.23
2022-07-31T17:09:20.706Z,36.80
2022-07-31T17:11:49.492Z,37.44
2022-07-31T17:14:18.251Z,37.10
2022-07-31T17:16:47.930Z,37.28
2022-07-31T17:19:41.047Z,37.82
2022-07-31T17:22:04.889Z,39.15
2022-07-31T17:24:31.854Z,39.08
2022-07-31T17:26:59.759Z,37.89
2022-07-31T17:29:26.382Z,39.23
2022-07-31T17:31:52.942Z,38.30
2022-07-31T17:34:19.500Z,39.24
2022-07-31T17:36:48.940Z,39.48
2022-07-31T17:39:16.437Z,40.30
2022-07-31T17:41:43.312Z,39.45
2022-07-31T17:44:10.050Z,39.75
2022-07-31T17:46:48.072Z,40.92
2022-07-31T17:49:19.578Z,40.88
2022-07-31T17:51:59.162Z,39.20
2022-07-31T17:54:31.453Z,40.90
2022-07-31T17:56:58.888Z,41.35
2022-07-31T17:59:26.448Z,41.21
2022-07-31T18:01:59.738Z,41.66
2022-07-31T18:04:32.028Z,41.60
2022-07-31T18:06:59.687Z,41.65
2022-07-31T18:09:27.853Z,42.73
2022-07-31T18:11:55.454Z,43.16
2022-07-31T18:14:24.473Z,44.01
2022-07-31T18:16:51.869Z,44.42
2022-07-31T18:19:18.510Z,45.18
2022-07-31T18:21:45.037Z,44.52
2022-07-31T18:24:11.604Z,45.43
2022-07-31T18:26:38.157Z,46.92
2022-07-31T18:29:05.324Z,47.54
2022-07-31T18:31:34.625Z,47.82
2022-07-31T18:34:03.413Z,49.34
2022-07-31T18:36:29.953Z,50.88
2022-07-31T18:38:57.743Z,50.69
2022-07-31T18:41:24.675Z,51.67
2022-07-31T18:43:51.330Z,52.26
2022-07-31T18:46:17.891Z,52.31
2022-07-31T18:48:44.441Z,53.51
2022-07-31T18:51:11.050Z,53.34
2022-07-31T18:53:37.688Z,54.33
2022-07-31T18:56:04.523Z,54.89
2022-07-31T18:58:31.157Z,54.11
2022-07-31T19:00:57.741Z,54.32
2022-07-31T19:03:26.276Z,54.56
2022-07-31T19:05:53.277Z,55.24
2022-07-31T19:08:20.584Z,54.69
2022-07-31T19:10:49.502Z,55.58
2022-07-31T19:13:18.733Z,54.68
2022-07-31T19:15:47.936Z,55.77
2022-07-31T19:18:15.304Z,56.52
2022-07-31T19:21:00.090Z,56.79
2022-07-31T19:23:31.705Z,57.53
2022-07-31T19:26:03.813Z,57.53
2022-07-31T19:28:34.957Z,56.91
2022-07-31T19:31:01.696Z,57.75
2022-07-31T19:33:28.387Z,57.35
2022-07-31T19:36:00.661Z,57.13
2022-07-31T19:38:29.063Z,57.07
2022-07-31T19:40:55.672Z,57.71
2022-07-31T19:43:22.922Z,57.30
2022-07-31T19:46:00.496Z,57.27
2022-07-31T19:48:37.027Z,57.44
2022-07-31T19:51:04.124Z,58.29
2022-07-31T19:53:30.706Z,58.61
2022-07-31T19:55:57.327Z,59.29
2022-07-31T19:58:23.940Z,59.26
2022-07-31T20:00:50.485Z,59.18
2022-07-31T20:03:17.222Z,59.71
2022-07-31T20:05:43.923Z,60.16
2022-07-31T20:08:10.528Z,60.24
2022-07-31T20:10:37.132Z,61.20
2022-07-31T20:13:03.774Z,61.63
2022-07-31T20:15:52.475Z,61.49
2022-07-31T20:18:23.337Z,61.98
2022-07-31T20:20:57.138Z,61.86
2022-07-31T20:23:24.434Z,62.47
2022-07-31T20:25:51.105Z,65.97
2022-07-31T20:28:17.638Z,64.22
2022-07-31T20:30:44.247Z,63.33
2022-07-31T20:33:11.159Z,63.39
2022-07-31T20:35:48.371Z,63.76
2022-07-31T20:38:25.593Z,62.65
2022-07-31T20:40:55.748Z,61.64
2022-07-31T20:43:27.384Z,61.73
2022-07-31T20:45:57.555Z,63.60
2022-07-31T20:48:35.002Z,62.08
2022-07-31T20:51:03.879Z,62.47
2022-07-31T20:53:31.387Z,62.62
2022-07-31T20:55:58.645Z,64.62
2022-07-31T20:58:25.638Z,64.84
2022-07-31T21:00:53.452Z,63.40
2022-07-31T21:03:20.677Z,63.29
2022-07-31T21:05:47.671Z,63.45
2022-07-31T21:08:14.288Z,63.36
2022-07-31T21:10:40.971Z,63.38
2022-07-31T21:13:07.869Z,63.00
2022-07-31T21:15:43.035Z,63.28
2022-07-31T21:18:16.496Z,63.72
2022-07-31T21:20:51.644Z,64.42
2022-07-31T21:23:24.109Z,64.57
2022-07-31T21:25:52.290Z,65.04
2022-07-31T21:28:18.977Z,65.27
2022-07-31T21:30:46.413Z,64.75
2022-07-31T21:33:13.034Z,64.38
2022-07-31T21:35:41.614Z,65.75
2022-07-31T21:38:11.865Z,65.81
2022-07-31T21:40:39.943Z,65.66
2022-07-31T21:43:07.898Z,64.44
2022-07-31T21:45:55.314Z,64.60
2022-07-31T21:48:23.724Z,63.06
2022-07-31T21:50:50.564Z,62.89
2022-07-31T21:53:17.158Z,62.70
2022-07-31T21:55:43.980Z,62.19
2022-07-31T21:58:10.641Z,62.37
2022-07-31T22:00:37.382Z,64.14
2022-07-31T22:03:04.793Z,65.99
2022-07-31T22:05:50.685Z,67.87
2022-07-31T22:08:17.637Z,66.95
2022-07-31T22:10:44.420Z,66.06
2022-07-31T22:13:11.885Z,66.21
2022-07-31T22:15:58.906Z,64.92
2022-07-31T22:18:27.197Z,65.33
2022-07-31T22:20:54.421Z,64.19
2022-07-31T22:23:21.440Z,64.05
2022-07-31T22:25:49.559Z,63.80
2022-07-31T22:28:20.647Z,63.81
2022-07-31T22:30:47.648Z,63.93
2022-07-31T22:33:14.824Z,63.56
2022-07-31T22:35:41.610Z,64.52
2022-07-31T22:38:09.054Z,65.42
2022-07-31T22:40:35.738Z,66.77
2022-07-31T22:43:03.660Z,66.75
2022-07-31T22:45:30.653Z,66.71
2022-07-31T22:47:58.103Z,67.26
2022-07-31T22:50:25.249Z,65.95
2022-07-31T22:52:52.790Z,64.91
2022-07-31T22:55:19.535Z,65.00
2022-07-31T22:57:46.285Z,65.81
2022-07-31T23:00:14.257Z,65.43
2022-07-31T23:02:42.702Z,65.65
2022-07-31T23:05:10.201Z,65.97
2022-07-31T23:07:37.037Z,65.43
2022-07-31T23:10:05.594Z,65.61
2022-07-31T23:12:32.207Z,66.24
2022-07-31T23:14:58.783Z,66.70
2022-07-31T23:17:25.411Z,66.48
2022-07-31T23:19:54.175Z,66.20
2022-07-31T23:22:30.698Z,66.18
2022-07-31T23:25:00.486Z,66.54
2022-07-31T23:27:27.098Z,66.61
2022-07-31T23:29:53.636Z,66.54
2022-07-31T23:32:20.183Z,67.57
2022-07-31T23:34:46.701Z,67.56
2022-07-31T23:37:13.319Z,67.48
2022-07-31T23:39:40.121Z,67.77
2022-07-31T23:42:25.149Z,68.16
2022-07-31T23:44:51.770Z,68.16
2022-07-31T23:47:19.324Z,68.18
2022-07-31T23:49:46.750Z,67.54
2022-07-31T23:52:13.499Z,67.48
2022-07-31T23:54:40.187Z,66.92
2022-07-31T23:57:06.775Z,67.26
2022-07-31T23:59:33.352Z,66.76
